createdAt,value
2018-12-31T00:02:31.053Z,1.00
2018-12-31T00:05:00.247Z,1.67
2018-12-31T00:07:48.477Z,1.70
2018-12-31T00:10:17.401Z,2.03
2018-12-31T00:12:46.292Z,2.60
2018-12-31T00:15:15.029Z,1.40
2018-12-31T00:17:43.952Z,2.10
2018-12-31T00:20:12.854Z,2.70
2018-12-31T00:22:41.576Z,1.93
2018-12-31T00:25:10.506Z,1.72
2018-12-31T00:27:39.717Z,1.87
2018-12-31T00:30:08.464Z,1.63
2018-12-31T00:32:37.610Z,1.83
2018-12-31T00:35:06.835Z,2.40
2018-12-31T00:37:35.741Z,2.20
2018-12-31T00:40:04.511Z,1.67
2018-12-31T00:42:33.196Z,1.50
2018-12-31T00:45:02.103Z,1.77
2018-12-31T00:47:31.499Z,1.77
2018-12-31T00:50:00.469Z,2.10
2018-12-31T00:52:29.353Z,1.47
2018-12-31T00:54:58.741Z,1.70
2018-12-31T00:57:27.917Z,1.37
2018-12-31T00:59:57.375Z,1.77
2018-12-31T01:02:26.539Z,1.97
2018-12-31T01:04:55.997Z,1.90
2018-12-31T01:07:24.972Z,2.47
2018-12-31T01:09:54.156Z,1.60
2018-12-31T01:12:23.188Z,1.50
2018-12-31T01:14:52.334Z,2.60
2018-12-31T01:17:21.481Z,1.50
2018-12-31T01:19:50.513Z,1.93
2018-12-31T01:22:19.167Z,1.93
2018-12-31T01:24:47.917Z,2.50
2018-12-31T01:27:16.633Z,1.63
2018-12-31T01:29:45.765Z,1.90
2018-12-31T01:32:14.685Z,2.10
2018-12-31T01:34:43.582Z,1.90
2018-12-31T01:37:12.497Z,1.87
2018-12-31T01:39:41.195Z,1.43
2018-12-31T01:42:10.243Z,1.37
2018-12-31T01:44:38.942Z,1.33
2018-12-31T01:47:08.107Z,1.63
2018-12-31T01:49:36.925Z,1.47
2018-12-31T01:52:05.628Z,2.37
2018-12-31T01:54:34.543Z,1.73
2018-12-31T01:57:03.533Z,1.40
2018-12-31T01:59:32.179Z,2.40
2018-12-31T02:02:01.294Z,1.57
2018-12-31T02:04:49.265Z,1.30
2018-12-31T02:07:18.148Z,1.80
2018-12-31T02:09:47.040Z,1.93
2018-12-31T02:12:16.021Z,1.77
2018-12-31T02:14:44.986Z,1.67
2018-12-31T02:17:13.905Z,2.77
2018-12-31T02:19:43.102Z,2.93
2018-12-31T02:22:11.794Z,2.13
2018-12-31T02:24:40.660Z,2.63
2018-12-31T02:27:09.665Z,2.00
2018-12-31T02:29:38.624Z,1.93
2018-12-31T02:32:07.261Z,1.70
2018-12-31T02:34:36.690Z,1.87
2018-12-31T02:37:17.476Z,2.80
2018-12-31T02:39:46.696Z,1.50
2018-12-31T02:42:15.743Z,1.50
2018-12-31T02:44:44.869Z,2.37
2018-12-31T02:47:15.170Z,1.50
2018-12-31T02:49:44.339Z,2.60
2018-12-31T02:52:12.996Z,1.53
2018-12-31T02:54:41.917Z,1.80
2018-12-31T02:57:10.805Z,2.90
2018-12-31T02:59:39.669Z,1.97
2018-12-31T03:02:08.425Z,2.90
2018-12-31T03:04:37.536Z,2.27
2018-12-31T03:07:06.489Z,2.62
2018-12-31T03:09:35.340Z,3.13
2018-12-31T03:12:04.466Z,2.60
2018-12-31T03:14:33.668Z,3.90
2018-12-31T03:17:02.568Z,2.80
2018-12-31T03:19:31.456Z,3.70
2018-12-31T03:22:00.396Z,2.40
2018-12-31T03:24:29.264Z,2.00
2018-12-31T03:26:58.220Z,2.63
2018-12-31T03:29:27.409Z,2.70
2018-12-31T03:31:56.069Z,2.23
2018-12-31T03:34:25.169Z,2.50
2018-12-31T03:36:53.866Z,4.13
2018-12-31T03:39:22.791Z,3.23
2018-12-31T03:41:51.774Z,1.80
2018-12-31T03:44:21.202Z,2.40
2018-12-31T03:46:50.141Z,3.80
2018-12-31T03:49:19.259Z,2.87
2018-12-31T03:51:48.533Z,2.23
2018-12-31T03:54:17.640Z,3.00
2018-12-31T03:56:46.517Z,2.53
2018-12-31T03:59:15.228Z,2.93
2018-12-31T04:01:44.129Z,2.60
2018-12-31T04:04:12.993Z,3.40
2018-12-31T04:06:41.942Z,3.33
2018-12-31T04:09:10.800Z,3.07
2018-12-31T04:11:39.665Z,3.70
2018-12-31T04:14:08.530Z,3.80
2018-12-31T04:16:37.397Z,3.50
2018-12-31T04:19:06.276Z,3.03
2018-12-31T04:21:35.299Z,3.60
2018-12-31T04:24:04.245Z,3.47
2018-12-31T04:26:33.141Z,5.00
2018-12-31T04:29:02.363Z,3.90
2018-12-31T04:31:31.221Z,3.90
2018-12-31T04:33:59.873Z,3.20
2018-12-31T04:36:28.857Z,3.03
2018-12-31T04:38:57.741Z,3.30
2018-12-31T04:41:46.106Z,3.30
2018-12-31T04:44:15.084Z,4.90
2018-12-31T04:46:43.999Z,3.20
2018-12-31T04:49:13.211Z,4.23
2018-12-31T04:51:42.097Z,3.90
2018-12-31T04:54:30.309Z,5.10
2018-12-31T04:56:59.420Z,4.33
2018-12-31T04:59:47.635Z,3.70
2018-12-31T05:02:16.555Z,3.73
2018-12-31T05:04:45.490Z,3.60
2018-12-31T05:07:14.412Z,3.20
2018-12-31T05:09:43.142Z,2.70
2018-12-31T05:12:12.084Z,3.27
2018-12-31T05:14:41.016Z,5.43
2018-12-31T05:17:09.924Z,4.50
2018-12-31T05:19:58.337Z,4.30
2018-12-31T05:22:39.093Z,4.20
2018-12-31T05:25:20.342Z,3.50
2018-12-31T05:28:01.497Z,3.07
2018-12-31T05:30:42.366Z,4.93
2018-12-31T05:33:23.453Z,3.90
2018-12-31T05:36:04.517Z,4.63
2018-12-31T05:38:45.349Z,5.27
2018-12-31T05:41:26.476Z,4.10
2018-12-31T05:44:07.204Z,4.33
2018-12-31T05:46:47.629Z,5.17
2018-12-31T05:49:28.505Z,4.87
2018-12-31T05:52:09.529Z,4.33
2018-12-31T05:54:50.158Z,4.90
2018-12-31T05:57:31.104Z,3.57
2018-12-31T06:00:19.545Z,4.37
2018-12-31T06:03:07.766Z,4.10
2018-12-31T06:05:55.709Z,4.00
2018-12-31T06:08:43.678Z,4.80
2018-12-31T06:11:12.833Z,4.40
2018-12-31T06:13:41.711Z,3.80
2018-12-31T06:16:10.424Z,5.20
2018-12-31T06:18:39.533Z,5.30
2018-12-31T06:21:08.633Z,4.60
2018-12-31T06:23:37.869Z,5.50
2018-12-31T06:26:06.980Z,3.30
2018-12-31T06:28:35.626Z,3.90
2018-12-31T06:31:23.837Z,3.43
2018-12-31T06:33:52.752Z,3.73
2018-12-31T06:36:21.911Z,3.73
2018-12-31T06:39:10.117Z,3.73
2018-12-31T06:41:38.981Z,3.70
2018-12-31T06:44:07.864Z,4.70
2018-12-31T06:46:37.032Z,3.30
2018-12-31T06:49:05.678Z,4.30
2018-12-31T06:51:34.326Z,4.13
2018-12-31T06:54:03.261Z,3.73
2018-12-31T06:56:31.899Z,3.20
2018-12-31T06:59:00.769Z,4.00
2018-12-31T07:01:29.461Z,3.60
2018-12-31T07:03:58.104Z,4.23
2018-12-31T07:06:27.248Z,4.30
2018-12-31T07:08:56.177Z,3.37
2018-12-31T07:11:25.180Z,4.25
2018-12-31T07:13:54.108Z,3.50
2018-12-31T07:16:42.314Z,4.30
2018-12-31T07:19:11.176Z,3.60
2018-12-31T07:21:59.369Z,5.10
2018-12-31T07:24:28.048Z,5.53
2018-12-31T07:29:31.254Z,5.70
2018-12-31T07:32:00.184Z,6.10
2018-12-31T07:34:28.828Z,5.30
2018-12-31T07:36:57.938Z,3.93
2018-12-31T07:39:26.640Z,5.53
2018-12-31T07:41:55.529Z,3.80
2018-12-31T07:44:24.389Z,3.40
2018-12-31T07:46:53.325Z,4.83
2018-12-31T07:49:22.421Z,4.63
2018-12-31T07:51:51.544Z,4.00
2018-12-31T07:54:20.237Z,4.10
2018-12-31T07:56:48.880Z,5.40
2018-12-31T07:59:17.741Z,4.17
2018-12-31T08:01:46.755Z,3.98
2018-12-31T08:04:16.105Z,4.33
2018-12-31T08:06:45.060Z,4.00
2018-12-31T08:09:13.775Z,4.30
2018-12-31T08:11:42.648Z,5.07
2018-12-31T08:14:11.297Z,4.43
2018-12-31T08:16:40.245Z,5.10
2018-12-31T08:19:09.164Z,5.10
2018-12-31T08:21:57.147Z,4.37
2018-12-31T08:24:26.261Z,6.33
2018-12-31T08:26:55.404Z,4.53
2018-12-31T08:29:24.576Z,4.00
2018-12-31T08:31:53.824Z,4.33
2018-12-31T08:34:23.189Z,3.50
2018-12-31T08:36:52.221Z,5.93
2018-12-31T08:39:21.112Z,5.10
2018-12-31T08:41:50.275Z,4.03
2018-12-31T08:44:19.364Z,4.10
2018-12-31T08:46:48.516Z,4.63
2018-12-31T08:49:17.440Z,4.50
2018-12-31T08:51:46.558Z,3.47
2018-12-31T08:54:15.492Z,5.30
2018-12-31T08:56:44.384Z,4.27
2018-12-31T08:59:32.358Z,4.93
2018-12-31T09:02:01.674Z,3.93
2018-12-31T09:04:30.844Z,3.90
2018-12-31T09:06:59.832Z,4.10
2018-12-31T09:09:28.979Z,3.50
2018-12-31T09:11:57.618Z,4.10
2018-12-31T09:14:26.677Z,4.17
2018-12-31T09:16:56.018Z,4.27
2018-12-31T09:19:25.491Z,4.27
2018-12-31T09:21:54.121Z,3.50
2018-12-31T09:24:22.989Z,3.23
2018-12-31T09:29:46.125Z,3.00
2018-12-31T09:32:34.404Z,3.73
2018-12-31T09:35:14.857Z,4.10
2018-12-31T09:37:56.050Z,4.10
2018-12-31T09:40:37.010Z,3.47
2018-12-31T09:43:17.640Z,3.20
2018-12-31T09:45:58.397Z,3.40
2018-12-31T09:48:39.361Z,3.93
2018-12-31T09:51:20.369Z,3.40
2018-12-31T09:53:49.118Z,4.17
2018-12-31T09:56:18.008Z,3.97
2018-12-31T09:58:47.104Z,3.70
2018-12-31T10:01:15.808Z,2.97
2018-12-31T10:03:44.496Z,4.83
2018-12-31T10:06:14.276Z,3.10
2018-12-31T10:08:49.208Z,3.37
2018-12-31T10:11:13.587Z,4.13
2018-12-31T10:13:42.256Z,2.90
2018-12-31T10:16:11.203Z,4.00
2018-12-31T10:18:40.356Z,3.10
2018-12-31T10:21:11.685Z,2.83
2018-12-31T10:23:43.526Z,2.37
2018-12-31T10:26:13.425Z,3.10
2018-12-31T10:28:42.978Z,2.63
2018-12-31T10:31:12.247Z,3.53
2018-12-31T10:33:41.704Z,2.80
2018-12-31T10:36:10.773Z,4.53
2018-12-31T10:38:39.673Z,2.90
2018-12-31T10:43:28.874Z,2.57
2018-12-31T10:46:01.508Z,3.03
2018-12-31T10:48:30.255Z,2.90
2018-12-31T10:50:59.796Z,3.30
2018-12-31T10:53:29.305Z,3.37
2018-12-31T10:55:58.400Z,3.70
2018-12-31T10:58:28.204Z,2.70
2018-12-31T11:00:57.482Z,3.30
2018-12-31T11:03:31.002Z,3.17
2018-12-31T11:06:00.083Z,2.50
2018-12-31T11:08:29.011Z,4.13
2018-12-31T11:10:58.366Z,3.23
2018-12-31T11:13:27.717Z,4.53
2018-12-31T11:15:57.174Z,3.50
2018-12-31T11:18:26.172Z,3.27
2018-12-31T11:20:55.517Z,3.20
2018-12-31T11:23:24.924Z,2.20
2018-12-31T11:25:54.835Z,3.00
2018-12-31T11:28:24.816Z,3.00
2018-12-31T11:30:54.359Z,3.37
2018-12-31T11:33:23.732Z,4.10
2018-12-31T11:35:52.863Z,3.07
2018-12-31T11:38:22.121Z,3.77
2018-12-31T11:40:51.158Z,3.17
2018-12-31T11:43:19.880Z,4.00
2018-12-31T11:46:08.145Z,3.90
2018-12-31T11:48:37.024Z,3.40
2018-12-31T11:51:06.128Z,3.00
2018-12-31T11:53:35.096Z,2.77
2018-12-31T11:56:04.276Z,2.77
2018-12-31T11:58:33.477Z,3.97
2018-12-31T12:01:03.091Z,3.00
2018-12-31T12:03:31.970Z,2.90
2018-12-31T12:06:00.837Z,3.20
2018-12-31T12:08:29.772Z,3.07
2018-12-31T12:10:58.684Z,3.80
2018-12-31T12:13:27.696Z,3.63
2018-12-31T12:15:57.492Z,2.70
2018-12-31T12:18:27.445Z,2.90
2018-12-31T12:20:56.573Z,4.23
2018-12-31T12:23:25.724Z,5.83
2018-12-31T12:25:54.766Z,2.97
2018-12-31T12:28:23.701Z,2.77
2018-12-31T12:30:52.584Z,3.47
2018-12-31T12:33:21.712Z,2.90
2018-12-31T12:35:51.313Z,3.37
2018-12-31T12:38:20.600Z,3.80
2018-12-31T12:40:49.723Z,4.83
2018-12-31T12:43:18.652Z,2.50
2018-12-31T12:45:47.512Z,3.73
2018-12-31T12:48:16.636Z,3.50
2018-12-31T12:50:45.760Z,4.27
2018-12-31T12:53:15.175Z,2.60
2018-12-31T12:55:44.129Z,3.03
2018-12-31T12:58:13.560Z,3.20
2018-12-31T13:00:42.709Z,4.20
2018-12-31T13:03:11.440Z,4.20
2018-12-31T13:05:40.318Z,3.60
2018-12-31T13:08:09.202Z,2.87
2018-12-31T13:10:37.962Z,3.30
2018-12-31T13:13:06.841Z,4.57
2018-12-31T13:15:35.722Z,4.20
2018-12-31T13:18:04.782Z,4.30
2018-12-31T13:20:33.428Z,3.87
2018-12-31T13:23:02.453Z,3.00
2018-12-31T13:25:31.584Z,2.90
2018-12-31T13:28:00.923Z,3.10
2018-12-31T13:30:29.837Z,2.70
2018-12-31T13:32:58.697Z,3.43
2018-12-31T13:35:27.640Z,3.00
2018-12-31T13:37:56.595Z,3.47
2018-12-31T13:40:25.218Z,2.90
2018-12-31T13:42:53.921Z,4.30
2018-12-31T13:45:23.047Z,3.97
2018-12-31T13:47:51.997Z,3.07
2018-12-31T13:50:21.080Z,3.23
2018-12-31T13:52:49.728Z,5.70
2018-12-31T13:55:18.989Z,4.63
2018-12-31T13:57:47.876Z,4.80
2018-12-31T14:00:16.624Z,4.77
2018-12-31T14:02:45.573Z,3.00
2018-12-31T14:05:16.459Z,4.70
2018-12-31T14:07:45.869Z,4.30
2018-12-31T14:10:14.541Z,3.60
2018-12-31T14:12:43.481Z,3.63
2018-12-31T14:15:12.825Z,6.93
2018-12-31T14:17:42.177Z,3.67
2018-12-31T14:20:11.105Z,4.07
2018-12-31T14:22:39.757Z,3.97
2018-12-31T14:25:08.992Z,3.87
2018-12-31T14:27:38.697Z,4.30
2018-12-31T14:30:09.625Z,3.60
2018-12-31T14:32:38.745Z,3.80
2018-12-31T14:35:07.993Z,3.53
2018-12-31T14:37:36.872Z,4.30
2018-12-31T14:40:06.129Z,4.87
2018-12-31T14:42:34.833Z,3.77
2018-12-31T14:45:03.472Z,3.40
2018-12-31T14:47:32.631Z,4.40
2018-12-31T14:50:01.340Z,4.37
2018-12-31T14:52:30.361Z,4.13
2018-12-31T14:54:59.347Z,3.87
2018-12-31T14:57:28.264Z,4.10
2018-12-31T15:00:16.471Z,4.27
2018-12-31T15:02:45.224Z,3.17
2018-12-31T15:05:13.875Z,4.20
2018-12-31T15:07:42.689Z,4.07
2018-12-31T15:10:11.900Z,4.17
2018-12-31T15:12:40.846Z,4.03
2018-12-31T15:15:09.568Z,3.80
2018-12-31T15:17:57.532Z,4.57
2018-12-31T15:20:26.468Z,3.73
2018-12-31T15:22:55.542Z,5.60
2018-12-31T15:25:24.434Z,5.00
2018-12-31T15:27:53.649Z,5.00
2018-12-31T15:30:23.149Z,4.97
2018-12-31T15:32:52.037Z,5.60
2018-12-31T15:35:20.933Z,5.50
2018-12-31T15:37:49.696Z,4.83
2018-12-31T15:40:18.872Z,7.30
2018-12-31T15:42:48.010Z,11.40
2018-12-31T15:45:17.223Z,13.70
2018-12-31T15:47:45.864Z,14.13
2018-12-31T15:50:14.825Z,14.00
2018-12-31T15:52:43.965Z,18.70
2018-12-31T15:55:12.869Z,12.37
2018-12-31T15:57:41.562Z,9.73
2018-12-31T16:00:10.862Z,9.80
2018-12-31T16:02:39.566Z,11.33
2018-12-31T16:05:09.101Z,15.03
2018-12-31T16:07:45.348Z,11.83
2018-12-31T16:10:09.437Z,9.53
2018-12-31T16:12:38.712Z,5.77
2018-12-31T16:15:09.023Z,6.50
2018-12-31T16:17:37.973Z,6.33
2018-12-31T16:20:07.289Z,7.20
2018-12-31T16:22:36.225Z,5.07
2018-12-31T16:25:05.181Z,4.80
2018-12-31T16:27:33.966Z,4.40
2018-12-31T16:30:02.607Z,3.80
2018-12-31T16:32:31.593Z,4.60
2018-12-31T16:35:00.701Z,4.27
2018-12-31T16:37:29.574Z,3.63
2018-12-31T16:39:59.032Z,4.03
2018-12-31T16:42:28.364Z,4.40
2018-12-31T16:44:57.714Z,3.47
2018-12-31T16:47:26.393Z,3.10
2018-12-31T16:49:55.844Z,3.90
2018-12-31T16:52:24.482Z,3.93
2018-12-31T16:54:53.120Z,3.97
2018-12-31T16:57:41.321Z,4.00
2018-12-31T17:00:11.728Z,4.23
2018-12-31T17:02:59.705Z,4.20
2018-12-31T17:05:48.164Z,3.83
2018-12-31T17:08:36.498Z,3.60
2018-12-31T17:11:05.430Z,5.17
2018-12-31T17:13:34.463Z,4.10
2018-12-31T17:16:23.254Z,4.33
2018-12-31T17:18:53.746Z,3.40
2018-12-31T17:21:22.388Z,3.70
2018-12-31T17:23:51.308Z,3.77
2018-12-31T17:26:20.500Z,3.60
2018-12-31T17:29:08.457Z,4.50
2018-12-31T17:31:56.436Z,4.97
2018-12-31T17:34:44.598Z,5.30
2018-12-31T17:37:32.848Z,4.60
2018-12-31T17:40:20.762Z,4.53
2018-12-31T17:43:09.073Z,7.13
2018-12-31T17:45:57.233Z,7.30
2018-12-31T17:48:45.455Z,6.73
2018-12-31T17:51:33.629Z,7.10
2018-12-31T17:54:21.620Z,6.27
2018-12-31T17:57:09.806Z,6.80
2018-12-31T17:59:58.009Z,6.00
2018-12-31T18:02:40.401Z,10.10
2018-12-31T18:05:21.536Z,8.17
2018-12-31T18:08:02.671Z,7.40
2018-12-31T18:10:43.632Z,8.60
2018-12-31T18:13:23.966Z,8.43
2018-12-31T18:16:04.319Z,6.87
2018-12-31T18:18:45.712Z,6.57
2018-12-31T18:21:27.149Z,11.03
2018-12-31T18:24:07.890Z,10.27
2018-12-31T18:26:49.030Z,7.17
2018-12-31T18:29:30.021Z,8.37
2018-12-31T18:32:10.849Z,9.87
2018-12-31T18:34:51.889Z,6.90
2018-12-31T18:37:32.785Z,16.17
2018-12-31T18:40:12.324Z,10.33
2018-12-31T18:43:00.301Z,10.87
2018-12-31T18:45:48.288Z,10.07
2018-12-31T18:51:24.478Z,9.93
2018-12-31T18:53:53.125Z,9.20
2018-12-31T18:56:22.001Z,7.43
2018-12-31T18:58:51.256Z,8.37
2018-12-31T19:01:20.200Z,7.93
2018-12-31T19:03:49.356Z,9.10
2018-12-31T19:06:18.634Z,8.90
2018-12-31T19:08:47.821Z,8.67
2018-12-31T19:11:16.928Z,8.67
2018-12-31T19:13:46.084Z,9.90
2018-12-31T19:16:15.103Z,10.20
2018-12-31T19:18:44.005Z,9.10
2018-12-31T19:21:13.187Z,10.80
2018-12-31T19:23:42.357Z,10.60
2018-12-31T19:26:11.053Z,10.40
2018-12-31T19:28:39.805Z,9.87
2018-12-31T19:31:09.078Z,12.40
2018-12-31T19:33:38.220Z,13.00
2018-12-31T19:36:06.925Z,13.10
2018-12-31T19:38:35.849Z,10.63
2018-12-31T19:41:04.561Z,11.10
2018-12-31T19:43:33.981Z,12.20
2018-12-31T19:46:02.948Z,15.83
2018-12-31T19:48:32.040Z,14.73
2018-12-31T19:51:01.377Z,11.33
2018-12-31T19:53:30.340Z,13.90
2018-12-31T19:55:59.349Z,13.20
2018-12-31T19:58:28.447Z,24.37
2018-12-31T20:00:57.161Z,18.00
2018-12-31T20:03:26.484Z,17.00
2018-12-31T20:05:55.645Z,15.63
2018-12-31T20:08:24.575Z,13.33
2018-12-31T20:10:53.456Z,13.33
2018-12-31T20:13:22.169Z,17.37
2018-12-31T20:15:52.090Z,26.00
2018-12-31T20:18:20.925Z,23.10
2018-12-31T20:20:52.864Z,16.23
2018-12-31T20:23:22.082Z,17.07
2018-12-31T20:25:51.345Z,21.73
2018-12-31T20:28:39.573Z,22.70
2018-12-31T20:31:27.756Z,19.07
2018-12-31T20:34:08.878Z,19.60
2018-12-31T20:36:49.464Z,19.03
2018-12-31T20:39:29.789Z,19.60
2018-12-31T20:42:10.944Z,17.17
2018-12-31T20:44:51.330Z,17.53
2018-12-31T20:47:32.172Z,16.93
2018-12-31T20:50:13.395Z,20.30
2018-12-31T20:52:54.468Z,19.60
2018-12-31T20:55:34.873Z,19.03
2018-12-31T20:58:15.857Z,20.47
2018-12-31T21:00:57.036Z,20.43
2018-12-31T21:03:37.835Z,23.27
2018-12-31T21:06:19.297Z,21.60
2018-12-31T21:09:00.420Z,22.10
2018-12-31T21:11:41.545Z,22.87
2018-12-31T21:14:22.730Z,22.00
2018-12-31T21:17:04.172Z,22.23
2018-12-31T21:19:45.233Z,25.00
2018-12-31T21:22:25.760Z,28.80
2018-12-31T21:25:06.937Z,23.57
2018-12-31T21:27:47.993Z,28.40
2018-12-31T21:30:29.069Z,26.53
2018-12-31T21:33:09.353Z,26.40
2018-12-31T21:35:50.405Z,27.67
2018-12-31T21:38:31.091Z,27.77
2018-12-31T21:41:11.968Z,29.20
2018-12-31T21:43:52.385Z,30.83
2018-12-31T21:46:32.989Z,28.50
2018-12-31T21:49:14.152Z,30.20
2018-12-31T21:51:55.142Z,30.80
2018-12-31T21:54:35.805Z,28.00
2018-12-31T21:57:18.209Z,33.80
2018-12-31T21:59:59.361Z,31.50
2018-12-31T22:02:40.036Z,31.33
2018-12-31T22:05:20.902Z,29.80
2018-12-31T22:08:02.126Z,30.07
2018-12-31T22:10:43.409Z,28.20
2018-12-31T22:13:22.500Z,29.70
2018-12-31T22:16:10.440Z,30.73
2018-12-31T22:18:58.749Z,32.10
2018-12-31T22:21:46.678Z,29.80
2018-12-31T22:27:28.528Z,33.43
2018-12-31T22:30:16.744Z,31.67
2018-12-31T22:33:04.666Z,30.73
2018-12-31T22:35:54.384Z,32.40
2018-12-31T22:38:42.312Z,29.07
2018-12-31T22:41:32.502Z,28.83
2018-12-31T22:47:27.771Z,29.23
2018-12-31T22:50:15.925Z,26.70
2018-12-31T22:55:58.054Z,29.23
2018-12-31T22:58:46.049Z,25.57
2018-12-31T23:01:33.968Z,27.73
2018-12-31T23:04:22.218Z,27.27
2018-12-31T23:07:10.609Z,26.03
2018-12-31T23:09:58.598Z,31.50
2018-12-31T23:12:46.793Z,102.73
2018-12-31T23:15:28.059Z,168.80
2018-12-31T23:18:08.550Z,186.23
2018-12-31T23:20:49.908Z,51.20
2018-12-31T23:23:30.608Z,45.90
2018-12-31T23:26:11.165Z,34.83
2018-12-31T23:28:52.894Z,42.10
2018-12-31T23:31:33.660Z,41.03
2018-12-31T23:34:14.845Z,38.97
2018-12-31T23:36:44.010Z,44.90
2018-12-31T23:39:13.114Z,56.87
2018-12-31T23:41:42.230Z,41.27
2018-12-31T23:44:11.228Z,42.50
2018-12-31T23:46:59.385Z,32.13
2018-12-31T23:49:28.312Z,31.40
2018-12-31T23:51:56.986Z,33.93
2018-12-31T23:57:38.290Z,34.77
